Time;durP1;ratioP1;P1;durP2;ratioP2;P2;SDS_P1;SDS_P2;PMS_P1;PMS_P2;Temp;Humidity;BMP_temperature;BMP_pressure;BME280_temperature;BME280_humidity;BME280_pressure;Samples;Min_cycle;Max_cycle;Signal;HPM_P1;HPM_P2
2022/06/21 00:02:20;;;;;;;3.27;1.40;;;;;;;16.08;70.24;98070.63;5034942;28;20320;-68
2022/06/21 00:04:47;;;;;;;2.37;1.40;;;;;;;16.09;70.56;98072.22;5034997;28;20294;-68
2022/06/21 00:07:23;;;;;;;1.27;1.07;;;;;;;16.08;70.37;98073.31;5034874;28;20699;-69
2022/06/21 00:09:49;;;;;;;1.30;1.20;;;;;;;15.95;70.64;98068.34;5034853;28;20602;-68
2022/06/21 00:12:16;;;;;;;2.17;1.07;;;;;;;15.96;70.55;98069.94;5034812;28;20202;-69
2022/06/21 00:14:43;;;;;;;1.90;1.03;;;;;;;15.97;70.72;98060.06;5034395;28;20669;-68
2022/06/21 00:17:15;;;;;;;1.83;1.10;;;;;;;16.05;71.15;98071.13;5034739;28;20297;-69
2022/06/21 00:19:43;;;;;;;2.17;1.00;;;;;;;15.97;70.26;98063.53;5034307;28;20226;-69
2022/06/21 00:22:15;;;;;;;1.33;1.07;;;;;;;15.97;71.00;98066.19;5034478;28;20226;-69
2022/06/21 00:24:42;;;;;;;1.50;1.20;;;;;;;15.92;70.25;98060.78;5034571;28;20277;-69
2022/06/21 00:27:17;;;;;;;2.00;1.00;;;;;;;15.85;70.67;98062.88;5034316;28;20301;-69
2022/06/21 00:29:44;;;;;;;2.10;1.13;;;;;;;15.93;70.73;98070.44;5034326;28;20313;-69
2022/06/21 00:32:20;;;;;;;1.93;0.90;;;;;;;15.87;71.56;98055.38;5034075;28;20680;-69
2022/06/21 00:34:47;;;;;;;1.73;1.27;;;;;;;15.91;70.11;98061.84;5034183;28;20194;-69
2022/06/21 00:37:21;;;;;;;1.70;1.20;;;;;;;15.91;70.24;98075.25;5000606;28;20212;-69
2022/06/21 00:39:48;;;;;;;1.70;1.20;;;;;;;15.81;70.98;98068.97;5016440;28;20793;-69
2022/06/21 00:42:23;;;;;;;3.30;1.20;;;;;;;15.79;70.24;98069.22;5034175;28;20317;-69
2022/06/21 00:45:03;;;;;;;1.60;1.10;;;;;;;15.76;69.44;98072.44;5034273;28;20277;-69
2022/06/21 00:47:52;;;;;;;2.00;1.30;;;;;;;15.72;70.45;98075.84;5034251;28;20281;-69
2022/06/21 00:50:34;;;;;;;3.67;1.20;;;;;;;15.68;70.82;98066.69;5033910;28;20276;-69
2022/06/21 00:53:12;;;;;;;1.40;1.30;;;;;;;15.62;71.20;98065.84;5034013;28;20285;-69
2022/06/21 00:55:50;;;;;;;1.43;1.17;;;;;;;15.60;70.73;98062.56;5033998;28;20192;-69
2022/06/21 00:58:18;;;;;;;2.37;1.20;;;;;;;15.63;71.71;98055.91;5033995;28;20316;-69
2022/06/21 01:00:53;;;;;;;1.07;0.93;;;;;;;15.57;71.74;98060.41;5033959;28;20296;-69
2022/06/21 01:03:23;;;;;;;1.73;1.30;;;;;;;15.60;71.93;98053.75;5033558;28;20570;-68
2022/06/21 01:05:52;;;;;;;3.23;1.17;;;;;;;15.45;72.51;98053.53;5016369;28;20190;-69
2022/06/21 01:08:22;;;;;;;1.10;1.00;;;;;;;15.46;72.51;98057.84;5033729;28;20232;-69
2022/06/21 01:10:54;;;;;;;2.13;1.10;;;;;;;15.44;72.51;98051.94;5033854;28;20196;-68
2022/06/21 01:13:24;;;;;;;1.83;1.00;;;;;;;15.48;71.60;98034.31;5033769;28;20191;-69
2022/06/21 01:15:53;;;;;;;1.20;1.10;;;;;;;15.46;69.84;98031.03;5033755;28;20198;-69
2022/06/21 01:18:22;;;;;;;1.50;1.10;;;;;;;15.51;69.86;98044.53;5033895;28;20226;-69
2022/06/21 01:20:52;;;;;;;2.43;1.33;;;;;;;15.59;70.01;98046.75;5033395;28;20206;-69
2022/06/21 01:23:28;;;;;;;3.57;1.10;;;;;;;15.60;67.13;98038.47;5033564;28;20312;-69
2022/06/21 01:26:16;;;;;;;2.40;1.10;;;;;;;15.56;68.13;98044.59;5033259;28;20239;-69
2022/06/21 01:28:43;;;;;;;1.90;1.00;;;;;;;15.58;69.15;98037.91;5033504;28;20236;-69
2022/06/21 01:31:10;;;;;;;1.10;1.00;;;;;;;15.60;68.07;98043.03;5033555;28;20206;-69
2022/06/21 01:33:42;;;;;;;2.03;1.03;;;;;;;15.61;69.20;98039.28;5033539;28;20302;-68
2022/06/21 01:36:15;;;;;;;3.13;1.10;;;;;;;15.55;68.67;98030.38;5033223;28;20193;-68
2022/06/21 01:38:55;;;;;;;1.73;1.20;;;;;;;15.64;67.59;98014.63;5016386;28;20225;-69
2022/06/21 01:41:31;;;;;;;1.57;1.00;;;;;;;15.52;67.78;97997.91;5033332;28;20281;-69
2022/06/21 01:44:02;;;;;;;1.83;1.20;;;;;;;15.39;68.53;97998.28;5033140;28;20290;-69
2022/06/21 01:46:31;;;;;;;1.63;1.00;;;;;;;15.45;67.73;97987.38;5033434;28;20221;-69
2022/06/21 01:49:09;;;;;;;3.47;1.20;;;;;;;15.43;67.26;97986.81;5033210;28;20241;-69
2022/06/21 01:51:41;;;;;;;3.20;1.37;;;;;;;15.54;67.52;97977.03;5033019;28;20551;-69
2022/06/21 01:54:12;;;;;;;1.33;1.03;;;;;;;15.44;66.17;97980.41;5033081;28;20649;-69
2022/06/21 01:56:40;;;;;;;1.07;0.97;;;;;;;15.53;65.58;97980.78;5033565;28;20190;-69
2022/06/21 01:59:24;;;;;;;1.80;1.20;;;;;;;15.48;65.66;97975.34;5032789;28;20226;-69
2022/06/21 02:02:05;;;;;;;1.10;1.00;;;;;;;15.37;65.27;97958.38;5033920;28;20308;-69
2022/06/21 02:04:37;;;;;;;0.83;0.83;;;;;;;15.50;64.81;97974.03;5033239;28;20277;-69
2022/06/21 02:07:08;;;;;;;3.77;1.10;;;;;;;15.34;64.23;97980.28;5033265;28;20202;-69
2022/06/21 02:09:56;;;;;;;1.13;0.90;;;;;;;15.39;65.34;97991.09;5037045;28;20317;-69
2022/06/21 02:12:24;;;;;;;3.07;1.37;;;;;;;15.42;65.12;97977.16;5037178;28;20186;-69
2022/06/21 02:14:56;;;;;;;1.50;1.20;;;;;;;15.21;65.37;97975.31;5037067;28;20221;-69
2022/06/21 02:17:30;;;;;;;1.63;1.10;;;;;;;15.15;65.47;97970.94;5036968;28;20197;-69
2022/06/21 02:20:17;;;;;;;1.60;1.37;;;;;;;15.15;65.19;97965.56;5037017;28;20279;-68
2022/06/21 02:22:43;;;;;;;1.33;1.10;;;;;;;15.21;64.14;97963.78;5020357;28;20214;-69
2022/06/21 02:25:16;;;;;;;2.00;1.20;;;;;;;15.24;64.05;97963.28;5036793;28;20202;-69
2022/06/21 02:27:42;;;;;;;1.83;1.10;;;;;;;15.28;63.95;97956.38;5036753;28;20285;-68
2022/06/21 02:30:16;;;;;;;2.10;1.00;;;;;;;15.35;63.11;97949.78;5036675;28;20571;-69
2022/06/21 02:32:43;;;;;;;1.40;1.10;;;;;;;15.32;62.61;97946.75;5019292;28;20721;-69
2022/06/21 02:35:12;;;;;;;3.03;1.40;;;;;;;15.46;62.33;97956.03;5036726;28;20631;-69
2022/06/21 02:37:39;;;;;;;3.80;1.10;;;;;;;15.44;61.64;97964.34;5036578;28;20553;-68
2022/06/21 02:40:12;;;;;;;2.37;0.80;;;;;;;15.33;62.74;97967.13;5019072;28;20567;-68
2022/06/21 02:42:42;;;;;;;3.00;1.00;;;;;;;15.31;62.22;97963.88;5018662;28;20260;-68
2022/06/21 02:45:20;;;;;;;1.27;1.20;;;;;;;15.29;63.01;97969.47;5018793;28;20296;-69
2022/06/21 02:47:49;;;;;;;2.77;1.23;;;;;;;15.26;62.82;97958.47;5036352;28;20194;-68
2022/06/21 02:50:38;;;;;;;2.23;1.20;;;;;;;15.25;62.61;97949.63;5018757;28;20218;-69
2022/06/21 02:53:12;;;;;;;3.70;1.30;;;;;;;15.39;61.61;97958.94;5019742;28;20191;-69
2022/06/21 02:55:54;;;;;;;1.87;1.10;;;;;;;15.33;61.14;97970.59;5019419;28;20217;-69
2022/06/21 02:58:30;;;;;;;1.83;1.10;;;;;;;15.27;62.06;97976.97;5035756;28;20651;-68
2022/06/21 03:00:58;;;;;;;1.97;1.23;;;;;;;15.26;62.02;97978.03;5035836;28;20278;-68
2022/06/21 03:03:28;;;;;;;1.83;1.20;;;;;;;15.25;61.83;97972.94;5035953;28;20235;-69
2022/06/21 03:05:59;;;;;;;2.13;1.40;;;;;;;15.25;61.96;97963.00;5036106;28;20224;-69
2022/06/21 03:08:29;;;;;;;1.90;1.17;;;;;;;15.26;62.65;97964.66;5018510;28;20222;-69
2022/06/21 03:10:56;;;;;;;1.27;1.10;;;;;;;15.08;63.99;97956.94;5035979;28;20293;-69
2022/06/21 03:13:30;;;;;;;1.67;1.00;;;;;;;15.02;63.92;97949.88;5035563;28;20562;-68
2022/06/21 03:16:00;;;;;;;2.80;1.30;;;;;;;15.10;64.23;97946.78;5018849;28;20191;-68
2022/06/21 03:18:31;;;;;;;1.90;1.13;;;;;;;15.12;64.38;97947.34;5034925;28;20657;-69
2022/06/21 03:20:59;;;;;;;1.33;1.03;;;;;;;15.20;63.74;97940.72;5035279;28;20201;-69
2022/06/21 03:23:26;;;;;;;1.30;1.17;;;;;;;15.23;63.92;97938.34;5018255;28;20316;-68
2022/06/21 03:25:57;;;;;;;3.27;1.20;;;;;;;15.24;64.00;97947.22;5035696;28;20237;-68
2022/06/21 03:28:25;;;;;;;2.87;1.20;;;;;;;15.31;63.42;97945.13;5017993;28;20317;-69
2022/06/21 03:31:24;;;;;;;1.93;1.20;;;;;;;15.19;63.16;97936.44;5035296;28;20308;-68
2022/06/21 03:33:55;;;;;;;1.80;1.10;;;;;;;15.10;63.51;97938.75;5030730;28;20216;-69
2022/06/21 03:36:24;;;;;;;3.40;1.07;;;;;;;15.19;64.12;97939.13;5035282;28;20277;-69
2022/06/21 03:38:58;;;;;;;2.70;1.40;;;;;;;15.21;63.82;97931.63;5035213;28;20226;-69
2022/06/21 03:41:43;;;;;;;2.57;1.23;;;;;;;15.17;63.65;97928.66;5035464;28;20190;-69
2022/06/21 03:44:24;;;;;;;1.53;1.07;;;;;;;15.22;63.22;97928.72;5020028;28;20264;-69
2022/06/21 03:46:56;;;;;;;1.33;1.13;;;;;;;15.15;64.24;97930.75;5034796;28;20201;-69
2022/06/21 03:49:42;;;;;;;1.67;1.30;;;;;;;15.23;63.80;97934.84;5034779;28;20328;-69
2022/06/21 03:52:41;;;;;;;2.10;1.40;;;;;;;15.27;63.96;97931.44;5035106;28;20190;-68
2022/06/21 03:55:12;;;;;;;3.33;1.30;;;;;;;15.32;62.59;97934.16;5034560;28;20573;-68
2022/06/21 03:57:42;;;;;;;2.00;1.30;;;;;;;15.35;63.16;97938.25;5035047;28;20204;-69
2022/06/21 04:00:13;;;;;;;1.63;1.20;;;;;;;15.30;63.50;97936.31;5034645;28;20282;-68
2022/06/21 04:02:53;;;;;;;1.70;1.40;;;;;;;15.39;62.74;97934.00;5034734;28;20214;-69
2022/06/21 04:05:49;;;;;;;4.13;1.43;;;;;;;15.51;61.55;97926.63;5034794;28;20605;-69
2022/06/21 04:08:29;;;;;;;2.60;1.30;;;;;;;15.53;62.49;97933.34;5028625;28;20260;-68
2022/06/21 04:11:06;;;;;;;2.20;1.30;;;;;;;15.57;63.28;97928.28;5034855;28;20200;-69
2022/06/21 04:13:44;;;;;;;2.37;1.40;;;;;;;15.57;63.28;97922.94;5034336;28;20269;-68
2022/06/21 04:16:49;;;;;;;2.23;1.17;;;;;;;15.62;62.32;97906.91;5001160;28;20643;-68
2022/06/21 04:19:26;;;;;;;1.40;1.30;;;;;;;15.64;62.22;97918.97;5011104;28;20314;-68
2022/06/21 04:21:56;;;;;;;2.17;1.30;;;;;;;15.87;62.09;97924.00;5034596;28;20600;-68
2022/06/21 04:24:35;;;;;;;1.50;1.40;;;;;;;15.91;61.62;97925.13;5016590;28;20633;-68
2022/06/21 04:27:18;;;;;;;3.13;1.60;;;;;;;15.92;60.36;97934.78;5034329;28;20191;-68
2022/06/21 04:29:54;;;;;;;2.77;1.57;;;;;;;16.02;60.11;97937.53;5034217;28;20222;-68
2022/06/21 04:32:48;;;;;;;1.87;1.30;;;;;;;15.95;58.80;97938.81;5034854;28;20190;-68
2022/06/21 04:35:33;;;;;;;4.50;1.90;;;;;;;16.00;58.95;97928.94;5033848;28;20612;-68
2022/06/21 04:38:25;;;;;;;1.93;1.20;;;;;;;16.07;57.95;97921.50;5034500;28;20320;-68
2022/06/21 04:41:01;;;;;;;4.83;1.50;;;;;;;16.13;57.75;97915.09;5010814;28;20216;-68
2022/06/21 04:43:49;;;;;;;2.90;1.40;;;;;;;16.18;57.78;97917.81;5016480;28;20581;-68
2022/06/21 04:46:34;;;;;;;3.07;1.50;;;;;;;16.24;56.67;97910.63;5034473;28;20193;-68
2022/06/21 04:49:07;;;;;;;1.93;1.50;;;;;;;16.28;56.55;97920.56;5033305;28;20287;-68
2022/06/21 04:51:42;;;;;;;5.73;1.60;;;;;;;16.18;56.99;97917.81;5034264;28;20205;-68
2022/06/21 04:54:26;;;;;;;7.03;1.70;;;;;;;16.21;57.62;97911.97;5033332;28;20276;-68
2022/06/21 04:57:05;;;;;;;2.07;1.50;;;;;;;16.15;57.68;97910.28;5033328;28;20204;-68
2022/06/21 04:59:40;;;;;;;2.17;1.60;;;;;;;16.17;57.98;97904.66;5033608;28;20253;-68
2022/06/21 05:02:11;;;;;;;4.83;1.93;;;;;;;16.22;59.05;97908.19;5033323;28;20279;-68
2022/06/21 05:04:41;;;;;;;2.23;1.63;;;;;;;16.32;58.34;97910.94;5033374;28;20273;-68
2022/06/21 05:07:15;;;;;;;3.17;1.90;;;;;;;16.27;58.77;97916.28;5033169;28;20665;-68
2022/06/21 05:09:42;;;;;;;2.83;1.57;;;;;;;16.44;59.66;97922.34;5033495;28;20309;-69
2022/06/21 05:12:24;;;;;;;5.83;2.00;;;;;;;16.79;58.44;97922.50;5033143;28;20214;-68
2022/06/21 05:14:57;;;;;;;3.67;1.73;;;;;;;16.81;58.23;97908.81;5017002;28;20197;-68
2022/06/21 05:17:25;;;;;;;4.90;1.83;;;;;;;16.93;56.76;97914.78;5015066;28;20217;-69
2022/06/21 05:19:56;;;;;;;2.13;1.27;;;;;;;17.14;57.15;97924.56;5032637;28;20316;-68
2022/06/21 05:22:24;;;;;;;3.20;1.80;;;;;;;17.60;55.31;97927.09;5032799;28;20221;-69
2022/06/21 05:24:52;;;;;;;2.63;2.13;;;;;;;17.69;53.40;97913.97;5033261;28;20212;-68
2022/06/21 05:27:29;;;;;;;2.80;1.30;;;;;;;17.64;52.43;97901.31;5032795;28;20752;-68
2022/06/21 05:30:08;;;;;;;4.60;1.80;;;;;;;17.55;52.49;97910.19;5032699;28;20267;-68
2022/06/21 05:32:41;;;;;;;3.23;1.90;;;;;;;17.53;52.15;97904.25;5033201;28;20217;-68
2022/06/21 05:35:20;;;;;;;4.07;1.50;;;;;;;17.72;52.24;97903.47;5015621;28;20652;-69
2022/06/21 05:37:56;;;;;;;4.63;1.70;;;;;;;17.53;51.87;97905.06;5032864;28;20607;-69
2022/06/21 05:40:42;;;;;;;3.00;1.67;;;;;;;17.62;51.75;97906.16;5033079;28;20621;-69
2022/06/21 05:43:16;;;;;;;5.10;1.83;;;;;;;17.69;51.64;97914.75;5032574;28;20304;-70
2022/06/21 05:45:52;;;;;;;4.50;2.30;;;;;;;17.86;51.34;97911.78;5032834;28;20189;-70
2022/06/21 05:48:33;;;;;;;2.80;1.70;;;;;;;17.91;50.30;97901.84;5032801;28;20257;-70
2022/06/21 05:51:04;;;;;;;2.37;1.80;;;;;;;17.84;50.27;97903.19;4999601;28;20189;-69
2022/06/21 05:53:40;;;;;;;5.37;1.90;;;;;;;17.80;50.07;97904.81;5033415;28;20606;-70
2022/06/21 05:56:13;;;;;;;3.63;1.63;;;;;;;17.89;50.47;97908.56;5032891;28;20263;-69
2022/06/21 05:58:47;;;;;;;3.40;1.90;;;;;;;17.94;51.65;97917.47;5032833;28;20237;-69
2022/06/21 06:01:35;;;;;;;2.77;1.70;;;;;;;17.87;50.44;97916.91;5032470;28;20198;-70
2022/06/21 06:04:19;;;;;;;3.63;1.90;;;;;;;17.94;50.33;97932.78;5032485;28;20297;-69
2022/06/21 06:06:48;;;;;;;3.10;1.60;;;;;;;17.86;50.86;97930.63;5032991;28;20281;-69
2022/06/21 06:09:20;;;;;;;3.80;1.83;;;;;;;17.99;50.20;97938.97;5032644;28;20413;-69
2022/06/21 06:12:00;;;;;;;5.20;2.00;;;;;;;17.84;49.21;97928.22;5032751;28;20212;-69
2022/06/21 06:14:51;;;;;;;2.83;1.40;;;;;;;17.66;49.85;97933.28;5032349;28;20198;-69
2022/06/21 06:17:33;;;;;;;3.93;1.60;;;;;;;17.83;49.01;97923.09;5032692;28;20281;-69
2022/06/21 06:20:36;;;;;;;4.87;1.70;;;;;;;17.79;49.03;97930.91;5032754;28;20292;-69
2022/06/21 06:23:30;;;;;;;5.60;1.57;;;;;;;17.81;48.79;97938.69;5032397;28;20214;-69
2022/06/21 06:26:13;;;;;;;2.73;1.90;;;;;;;17.68;49.53;97934.66;5032120;28;20281;-69
2022/06/21 06:28:53;;;;;;;4.03;2.10;;;;;;;17.88;49.68;97933.88;5031716;28;20321;-69
2022/06/21 06:31:33;;;;;;;2.87;1.60;;;;;;;18.08;50.04;97929.31;5032091;28;20214;-70
2022/06/21 06:34:08;;;;;;;3.93;1.90;;;;;;;18.42;50.55;97941.13;5032523;28;20244;-69
2022/06/21 06:36:39;;;;;;;3.67;1.80;;;;;;;18.42;49.31;97943.81;5014866;28;20277;-70
2022/06/21 06:39:18;;;;;;;3.70;2.00;;;;;;;18.50;48.32;97937.88;5031659;28;20226;-70
2022/06/21 06:41:59;;;;;;;4.93;1.70;;;;;;;18.57;48.47;97929.53;5032587;28;20197;-69
2022/06/21 06:44:29;;;;;;;3.73;2.30;;;;;;;18.74;49.33;97924.66;5032062;28;20212;-69
2022/06/21 06:46:59;;;;;;;6.90;2.87;;;;;;;18.67;48.00;97916.03;5032251;28;20297;-69
2022/06/21 06:49:28;;;;;;;4.07;2.17;;;;;;;18.83;48.12;97926.50;5032289;28;20323;-68
2022/06/21 06:52:18;;;;;;;4.23;3.53;;;;;;;19.07;47.02;97924.81;5014671;28;20212;-68
2022/06/21 06:55:05;;;;;;;3.03;2.00;;;;;;;19.10;46.72;97916.16;5035046;28;20202;-70
2022/06/21 06:57:50;;;;;;;5.77;2.10;;;;;;;18.90;47.01;97912.72;5035796;28;20536;-68
2022/06/21 07:00:25;;;;;;;5.23;2.07;;;;;;;18.98;46.74;97914.88;5035239;28;20233;-68
2022/06/21 07:02:59;;;;;;;12.27;7.57;;;;;;;18.93;47.49;97925.66;5035241;28;20231;-68
2022/06/21 07:05:34;;;;;;;3.40;1.90;;;;;;;19.10;47.06;97923.44;5035895;28;20186;-69
2022/06/21 07:08:12;;;;;;;9.67;6.17;;;;;;;19.07;46.67;97913.22;5035566;28;20742;-69
2022/06/21 07:10:39;;;;;;;6.43;3.97;;;;;;;19.12;46.79;97919.38;5019654;28;20190;-68
2022/06/21 07:13:05;;;;;;;4.10;2.53;;;;;;;19.15;46.24;97926.94;5035713;28;20293;-69
2022/06/21 07:15:36;;;;;;;3.23;1.53;;;;;;;19.29;45.88;97933.38;5035539;28;20225;-69
2022/06/21 07:18:04;;;;;;;3.00;1.40;;;;;;;19.27;47.12;97932.81;5035406;28;20226;-69
2022/06/21 07:20:36;;;;;;;5.57;2.80;;;;;;;19.42;45.79;97942.72;5036249;28;20296;-69
2022/06/21 07:23:02;;;;;;;3.67;1.80;;;;;;;19.68;45.55;97941.50;5035485;28;20312;-69
2022/06/21 07:25:37;;;;;;;1.70;1.60;;;;;;;19.49;45.85;97948.59;5035233;28;20236;-69
2022/06/21 07:28:13;;;;;;;3.53;2.60;;;;;;;19.45;45.65;97967.22;5034858;28;20667;-69
2022/06/21 07:30:43;;;;;;;2.37;1.70;;;;;;;19.73;46.31;97957.66;5035102;28;20685;-70
2022/06/21 07:33:16;;;;;;;3.47;1.60;;;;;;;19.38;46.16;97950.56;5036181;28;20576;-69
2022/06/21 07:35:50;;;;;;;5.20;1.80;;;;;;;19.41;46.13;97954.59;5035206;28;20233;-69
2022/06/21 07:38:26;;;;;;;3.63;1.80;;;;;;;19.33;47.19;97956.00;5035148;28;20318;-69
2022/06/21 07:41:10;;;;;;;4.07;1.70;;;;;;;19.32;46.75;97950.88;5035515;28;20200;-69
2022/06/21 07:43:45;;;;;;;3.40;1.93;;;;;;;19.39;46.85;97943.28;5034666;28;20304;-69
2022/06/21 07:46:16;;;;;;;4.30;2.27;;;;;;;19.62;47.06;97945.28;5035213;28;20205;-69
2022/06/21 07:48:46;;;;;;;3.43;2.10;;;;;;;19.32;46.63;97937.38;5034732;28;20244;-70
2022/06/21 07:51:18;;;;;;;3.67;1.63;;;;;;;19.37;46.97;97924.66;5034817;28;20740;-69
2022/06/21 07:53:54;;;;;;;3.73;2.03;;;;;;;19.53;46.91;97922.69;5034766;28;20538;-69
2022/06/21 07:56:44;;;;;;;2.87;1.77;;;;;;;19.62;46.64;97910.22;5034902;28;20267;-69
2022/06/21 07:59:14;;;;;;;4.40;2.37;;;;;;;19.67;46.46;97901.31;5017452;28;20321;-69
2022/06/21 08:07:45;;;;;;;3.80;1.93;;;;;;;20.41;45.14;97883.72;5019866;28;20189;-69
2022/06/21 08:10:56;;;;;;;3.40;1.70;;;;;;;20.34;45.79;97877.03;5017343;28;20220;-69
2022/06/21 08:13:22;;;;;;;5.90;4.30;;;;;;;20.19;46.19;97871.75;4973284;28;20216;-69
2022/06/21 08:16:00;;;;;;;4.83;3.73;;;;;;;20.37;46.25;97860.25;5022005;28;20206;-69
2022/06/21 08:18:59;;;;;;;9.20;7.57;;;;;;;20.13;46.26;97872.91;5017060;28;20316;-69
2022/06/21 08:21:35;;;;;;;6.00;5.00;;;;;;;20.15;46.16;97874.22;5034547;28;20701;-69
2022/06/21 08:24:09;;;;;;;3.07;2.53;;;;;;;20.07;46.58;97871.31;5017302;28;20223;-69
2022/06/21 08:26:45;;;;;;;14.90;13.27;;;;;;;20.23;46.42;97865.53;5033909;28;20191;-69
2022/06/21 08:29:22;;;;;;;5.87;4.97;;;;;;;20.28;46.83;97860.06;5034080;28;20234;-69
2022/06/21 08:31:59;;;;;;;6.90;5.63;;;;;;;20.38;46.09;97859.97;5034141;28;20273;-69
2022/06/21 08:34:36;;;;;;;11.07;8.97;;;;;;;20.15;47.17;97870.72;5034385;28;20219;-70
2022/06/21 08:37:27;;;;;;;3.70;1.90;;;;;;;20.22;47.07;97871.19;5034140;28;20276;-69
2022/06/21 08:40:21;;;;;;;2.83;2.30;;;;;;;20.18;47.66;97876.38;5033339;28;20708;-69
2022/06/21 08:43:02;;;;;;;4.13;2.03;;;;;;;20.28;47.16;97878.16;5022949;28;20210;-69
2022/06/21 08:45:54;;;;;;;6.03;3.20;;;;;;;20.34;47.63;97882.44;5033810;28;20208;-70
2022/06/21 08:48:54;;;;;;;2.80;2.57;;;;;;;20.36;48.02;97891.03;5033640;28;20305;-69
2022/06/21 08:51:40;;;;;;;4.90;1.80;;;;;;;20.47;48.86;97916.84;5033455;28;20198;-69
2022/06/21 08:54:28;;;;;;;3.10;1.50;;;;;;;20.48;49.15;97904.97;5033486;28;20631;-69
2022/06/21 08:56:59;;;;;;;3.57;2.23;;;;;;;20.54;48.01;97883.03;5033770;28;20281;-69
2022/06/21 08:59:56;;;;;;;2.43;1.70;;;;;;;20.85;48.65;97865.34;5015810;28;20679;-69
2022/06/21 09:02:34;;;;;;;4.97;1.80;;;;;;;20.61;48.09;97852.97;5033529;28;20687;-69
2022/06/21 09:05:25;;;;;;;1.93;1.80;;;;;;;20.46;47.52;97866.63;5033411;28;20234;-69
2022/06/21 09:08:25;;;;;;;5.43;2.23;;;;;;;20.47;47.36;97855.53;5033736;28;20340;-69
2022/06/21 09:11:04;;;;;;;4.17;2.10;;;;;;;20.56;48.52;97869.22;5033197;28;20286;-70
2022/06/21 09:13:43;;;;;;;3.53;2.00;;;;;;;21.15;46.66;97869.59;5033878;28;20209;-70
2022/06/21 09:16:47;;;;;;;5.77;2.50;;;;;;;21.84;44.92;97853.47;5033435;28;20186;-70
2022/06/21 09:19:50;;;;;;;8.93;3.13;;;;;;;22.13;45.03;97857.56;4982808;28;20237;-69
2022/06/21 09:22:40;;;;;;;3.63;1.80;;;;;;;21.87;45.02;97852.84;5033383;28;20272;-69
2022/06/21 09:25:28;;;;;;;9.03;2.20;;;;;;;21.93;45.70;97863.31;5033255;28;20236;-69
2022/06/21 09:28:06;;;;;;;3.80;2.13;;;;;;;21.93;45.10;97862.53;5033098;28;20244;-70
2022/06/21 09:30:45;;;;;;;2.20;1.70;;;;;;;21.97;45.41;97866.25;5033599;28;20224;-69
2022/06/21 09:33:22;;;;;;;4.77;1.90;;;;;;;21.93;45.24;97873.34;5015854;28;20205;-69
2022/06/21 09:36:19;;;;;;;3.30;1.80;;;;;;;22.07;44.84;97871.50;5015655;28;20192;-69
2022/06/21 09:38:57;;;;;;;2.77;1.60;;;;;;;22.07;44.55;97871.50;5033089;28;20228;-69
2022/06/21 09:42:07;;;;;;;4.00;2.00;;;;;;;22.09;45.97;97871.97;5033206;28;20212;-69
2022/06/21 09:45:07;;;;;;;3.17;1.70;;;;;;;22.57;44.33;97862.47;5033220;28;20305;-70
2022/06/21 09:48:00;;;;;;;3.30;1.80;;;;;;;22.46;43.69;97874.59;5018395;28;20277;-70
2022/06/21 09:50:56;;;;;;;4.83;1.90;;;;;;;22.48;44.46;97864.28;5015697;28;20560;-69
2022/06/21 09:53:34;;;;;;;3.47;1.90;;;;;;;22.37;43.96;97868.22;5016482;28;20190;-69
2022/06/21 09:56:43;;;;;;;6.43;2.10;;;;;;;22.29;44.30;97864.31;5034018;28;20190;-69
2022/06/21 09:59:16;;;;;;;4.22;1.73;;;;;;;22.30;44.49;97859.72;5032964;28;20313;-69
2022/06/21 10:02:10;;;;;;;2.30;1.88;;;;;;;22.54;44.11;97844.09;5033034;28;20286;-69
2022/06/21 10:04:59;;;;;;;3.60;1.80;;;;;;;22.67;43.88;97846.03;5018392;28;20304;-69
2022/06/21 10:08:05;;;;;;;3.97;1.75;;;;;;;22.59;43.76;97844.00;5015552;28;20285;-70
2022/06/21 10:10:54;;;;;;;3.30;2.00;;;;;;;22.82;44.13;97848.41;5019693;28;20300;-69
2022/06/21 10:13:44;;;;;;;3.40;2.13;;;;;;;23.08;44.60;97846.78;5032477;28;20690;-69
2022/06/21 10:16:29;;;;;;;2.22;1.88;;;;;;;23.43;43.82;97835.19;5015111;28;20197;-69
2022/06/21 10:19:11;;;;;;;4.63;2.00;;;;;;;23.43;42.54;97837.91;5032888;28;20304;-70
2022/06/21 10:21:58;;;;;;;3.20;2.35;;;;;;;23.48;43.14;97835.06;5032797;28;20194;-69
2022/06/21 10:25:08;;;;;;;2.85;2.15;;;;;;;23.44;42.94;97826.75;5032644;28;20210;-70
2022/06/21 10:27:55;;;;;;;3.55;2.00;;;;;;;23.46;42.98;97831.84;5013678;28;20205;-69
2022/06/21 10:30:43;;;;;;;2.88;2.00;;;;;;;23.59;43.17;97818.25;5035826;28;20197;-69
2022/06/21 10:33:35;;;;;;;3.75;2.30;;;;;;;23.81;43.57;97812.00;5018735;28;20281;-69
2022/06/21 10:36:40;;;;;;;2.42;2.03;;;;;;;23.73;43.06;97807.31;5018593;28;20201;-69
2022/06/21 10:39:31;;;;;;;2.88;2.33;;;;;;;23.79;43.77;97795.22;5005316;28;20804;-69
2022/06/21 10:45:18;;;;;;;5.00;2.15;;;;;;;24.19;43.67;97791.50;5008892;28;20272;-70
2022/06/21 10:47:57;;;;;;;2.85;2.28;;;;;;;24.17;42.16;97780.94;5035933;28;20186;-69
2022/06/21 10:50:23;;;;;;;4.70;2.17;;;;;;;24.11;43.19;97781.38;5035969;28;20300;-69
2022/06/21 10:53:08;;;;;;;4.13;2.30;;;;;;;24.28;43.03;97773.31;5035921;28;20202;-69
2022/06/21 10:59:13;;;;;;;4.45;2.53;;;;;;;24.25;43.04;97754.94;5006936;28;20575;-69
2022/06/21 11:01:48;;;;;;;3.30;2.22;;;;;;;24.37;43.73;97747.00;5036055;28;20296;-69
2022/06/21 11:04:33;;;;;;;3.05;2.30;;;;;;;24.33;43.86;97759.59;5035867;28;20205;-70
2022/06/21 11:07:45;;;;;;;3.30;2.00;;;;;;;24.30;43.82;97749.34;5035452;28;20637;-70
2022/06/21 11:10:18;;;;;;;5.00;2.58;;;;;;;24.85;44.01;97750.47;4974343;28;20207;-70
2022/06/21 11:12:56;;;;;;;2.83;2.13;;;;;;;24.71;43.61;97745.19;4975270;28;20585;-69
2022/06/21 11:15:44;;;;;;;5.30;2.10;;;;;;;24.77;44.34;97743.09;5002944;28;20241;-70
2022/06/21 11:18:20;;;;;;;2.47;2.25;;;;;;;25.04;43.09;97753.69;5035735;28;20261;-68
2022/06/21 11:21:06;;;;;;;3.80;2.03;;;;;;;24.78;43.48;97744.72;5018128;28;20272;-69
2022/06/21 11:23:48;;;;;;;4.63;2.40;;;;;;;24.74;44.05;97741.81;5035876;28;20210;-69
2022/06/21 11:26:56;;;;;;;4.60;2.75;;;;;;;24.94;43.89;97743.13;5017691;28;20218;-69
2022/06/21 11:29:41;;;;;;;4.47;2.30;;;;;;;24.63;44.81;97742.44;4973668;28;20250;-70
2022/06/21 11:32:36;;;;;;;5.45;2.70;;;;;;;24.73;45.18;97736.69;5030320;28;20292;-69
2022/06/21 11:35:18;;;;;;;2.60;2.40;;;;;;;25.08;44.99;97727.47;5035112;28;20194;-70
2022/06/21 11:37:56;;;;;;;2.75;2.30;;;;;;;24.65;45.72;97729.34;5035182;28;20272;-69
2022/06/21 11:40:38;;;;;;;4.07;2.70;;;;;;;24.48;46.36;97732.00;5033924;28;20221;-70
2022/06/21 11:43:22;;;;;;;6.07;2.88;;;;;;;24.72;46.21;97710.63;5034850;28;20186;-69
2022/06/21 11:45:52;;;;;;;3.47;2.60;;;;;;;24.83;45.62;97706.50;5035110;28;20222;-70
2022/06/21 11:48:28;;;;;;;5.32;3.10;;;;;;;25.20;45.45;97714.03;5034859;28;20316;-70
2022/06/21 11:51:10;;;;;;;3.63;2.70;;;;;;;25.39;44.61;97711.78;5034659;28;20194;-69
2022/06/21 11:53:49;;;;;;;3.30;2.42;;;;;;;25.35;44.60;97710.84;5035054;28;20190;-70
2022/06/21 11:56:26;;;;;;;5.38;2.88;;;;;;;25.58;44.59;97695.91;5017382;28;20194;-69
2022/06/21 11:59:06;;;;;;;4.45;2.88;;;;;;;25.84;44.86;97680.31;5034689;28;20316;-70
2022/06/21 12:01:42;;;;;;;8.80;3.05;;;;;;;25.70;44.35;97682.44;5034901;28;20281;-70
2022/06/21 12:04:41;;;;;;;5.70;3.35;;;;;;;25.55;45.04;97683.75;5034894;28;20209;-70
2022/06/21 12:07:37;;;;;;;3.47;2.78;;;;;;;25.21;45.36;97697.38;5017231;28;20194;-69
2022/06/21 12:10:21;;;;;;;6.97;2.90;;;;;;;25.21;45.73;97702.84;5029183;28;20305;-69
2022/06/21 12:13:14;;;;;;;2.90;2.60;;;;;;;25.25;45.74;97690.19;5034281;28;20222;-70
2022/06/21 12:16:02;;;;;;;4.20;2.90;;;;;;;25.47;45.37;97695.44;5034302;28;20190;-69
2022/06/21 12:18:32;;;;;;;3.90;2.95;;;;;;;25.44;45.41;97692.56;5034661;28;20316;-70
2022/06/21 12:21:10;;;;;;;2.83;2.53;;;;;;;25.43;46.67;97689.06;5016965;28;20210;-69
2022/06/21 12:23:55;;;;;;;4.13;2.88;;;;;;;25.26;46.72;97683.66;5035022;28;20190;-70
2022/06/21 12:26:24;;;;;;;7.90;3.08;;;;;;;25.18;46.86;97687.13;5034267;28;20709;-69
2022/06/21 12:28:53;;;;;;;4.00;2.50;;;;;;;25.52;46.60;97675.44;5033852;28;20226;-69
2022/06/21 12:31:42;;;;;;;3.90;2.88;;;;;;;25.40;46.08;97665.22;5033677;28;20573;-69
2022/06/21 12:34:12;;;;;;;3.25;2.78;;;;;;;25.56;46.20;97649.94;5034453;28;20190;-69
2022/06/21 12:36:50;;;;;;;8.73;3.33;;;;;;;25.49;46.95;97654.28;5034089;28;20285;-70
2022/06/21 12:39:31;;;;;;;3.78;3.38;;;;;;;25.48;46.47;97655.44;5034021;28;20225;-70
2022/06/21 12:42:00;;;;;;;3.95;2.90;;;;;;;25.48;46.06;97656.22;5033758;28;20218;-69